createdAt,value
2022-07-29T00:00:04.489Z,20.67
2022-07-29T00:01:04.502Z,20.67
2022-07-29T00:02:04.467Z,20.71
2022-07-29T00:03:04.611Z,20.67
2022-07-29T00:04:04.464Z,20.68
2022-07-29T00:05:04.425Z,20.65
2022-07-29T00:06:04.392Z,20.68
2022-07-29T00:07:04.375Z,20.63
2022-07-29T00:08:07.193Z,20.63
2022-07-29T00:09:04.342Z,20.74
2022-07-29T00:10:04.346Z,20.67
2022-07-29T00:11:04.312Z,20.67
2022-07-29T00:12:04.289Z,20.64
2022-07-29T00:13:04.278Z,20.67
2022-07-29T00:14:04.259Z,20.61
2022-07-29T00:15:04.261Z,20.64
2022-07-29T00:16:04.757Z,20.61
2022-07-29T00:17:04.211Z,20.55
2022-07-29T00:18:04.201Z,20.50
2022-07-29T00:19:04.179Z,20.64
2022-07-29T00:20:04.162Z,20.55
2022-07-29T00:21:04.137Z,20.56
2022-07-29T00:22:04.144Z,20.55
2022-07-29T00:23:04.108Z,20.55
2022-07-29T00:24:04.099Z,20.50
2022-07-29T00:25:04.077Z,20.53
2022-07-29T00:26:04.058Z,20.56
2022-07-29T00:27:04.060Z,20.56
2022-07-29T00:28:04.026Z,20.53
2022-07-29T00:29:32.397Z,20.63
2022-07-29T00:30:03.992Z,20.58
2022-07-29T00:31:04.046Z,20.58
2022-07-29T00:32:04.098Z,20.52
2022-07-29T00:33:08.149Z,20.53
2022-07-29T00:34:03.927Z,20.49
2022-07-29T00:35:03.911Z,20.55
2022-07-29T00:36:03.894Z,20.50
2022-07-29T00:37:03.873Z,20.49
2022-07-29T00:38:03.882Z,20.58
2022-07-29T00:39:03.840Z,20.53
2022-07-29T00:40:03.826Z,20.46
2022-07-29T00:41:03.807Z,20.53
2022-07-29T00:42:03.792Z,20.50
2022-07-29T00:43:03.791Z,20.52
2022-07-29T00:44:03.772Z,20.56
2022-07-29T00:45:03.784Z,20.53
2022-07-29T00:46:03.727Z,20.53
2022-07-29T00:47:03.798Z,20.50
2022-07-29T00:48:03.722Z,20.56
2022-07-29T00:49:03.732Z,20.53
2022-07-29T00:50:03.656Z,20.46
2022-07-29T00:51:03.659Z,20.44
2022-07-29T00:52:03.622Z,20.49
2022-07-29T00:53:03.610Z,20.44
2022-07-29T00:54:03.606Z,20.53
2022-07-29T00:55:08.425Z,20.52
2022-07-29T00:56:03.555Z,20.44
2022-07-29T00:57:03.548Z,20.49
2022-07-29T00:58:03.520Z,20.53
2022-07-29T00:59:03.509Z,20.46
2022-07-29T01:00:03.506Z,20.42
2022-07-29T01:01:03.526Z,20.53
2022-07-29T01:02:03.555Z,20.42
2022-07-29T01:03:03.436Z,20.52
2022-07-29T01:04:03.418Z,20.44
2022-07-29T01:05:03.421Z,20.36
2022-07-29T01:06:03.386Z,20.37
2022-07-29T01:07:03.372Z,20.36
2022-07-29T01:08:03.373Z,20.37
2022-07-29T01:09:03.349Z,20.34
2022-07-29T01:10:03.327Z,20.41
2022-07-29T01:11:03.311Z,20.39
2022-07-29T01:12:03.283Z,20.29
2022-07-29T01:13:03.277Z,20.30
2022-07-29T01:14:03.273Z,20.36
2022-07-29T01:15:03.233Z,20.30
2022-07-29T01:16:03.258Z,20.19
2022-07-29T01:17:03.204Z,20.22
2022-07-29T01:18:03.272Z,20.19
2022-07-29T01:19:03.167Z,20.23
2022-07-29T01:20:03.170Z,20.11
2022-07-29T01:21:03.130Z,20.14
2022-07-29T01:22:03.158Z,20.07
2022-07-29T01:23:03.100Z,19.97
2022-07-29T01:24:03.084Z,20.05
2022-07-29T01:25:03.064Z,20.07
2022-07-29T01:26:03.047Z,20.05
2022-07-29T01:27:03.037Z,19.97
2022-07-29T01:28:03.043Z,19.99
2022-07-29T01:29:06.122Z,20.04
2022-07-29T01:30:05.220Z,19.93
2022-07-29T01:31:03.069Z,20.00
2022-07-29T01:32:03.041Z,20.08
2022-07-29T01:33:02.961Z,19.99
2022-07-29T01:34:02.913Z,19.94
2022-07-29T01:35:02.910Z,19.94
2022-07-29T01:36:02.886Z,19.99
2022-07-29T01:37:02.861Z,20.00
2022-07-29T01:38:02.852Z,19.97
2022-07-29T01:39:02.850Z,20.07
2022-07-29T01:40:02.815Z,20.00
2022-07-29T01:41:02.813Z,20.08
2022-07-29T01:42:02.776Z,20.00
2022-07-29T01:43:02.758Z,20.02
2022-07-29T01:44:02.750Z,19.93
2022-07-29T01:45:02.732Z,19.97
2022-07-29T01:46:02.711Z,19.97
2022-07-29T01:47:02.778Z,19.93
2022-07-29T01:48:02.675Z,20.00
2022-07-29T01:49:02.772Z,19.93
2022-07-29T01:50:02.666Z,19.96
2022-07-29T01:51:02.638Z,19.89
2022-07-29T01:52:02.613Z,19.92
2022-07-29T01:53:02.593Z,19.84
2022-07-29T01:54:02.586Z,19.86
2022-07-29T01:55:02.582Z,19.74
2022-07-29T01:56:02.539Z,19.75
2022-07-29T01:57:02.532Z,19.72
2022-07-29T01:58:02.511Z,19.63
2022-07-29T01:59:02.524Z,19.60
2022-07-29T02:00:02.477Z,19.59
2022-07-29T02:01:02.478Z,19.59
2022-07-29T02:02:02.486Z,19.54
2022-07-29T02:03:02.427Z,19.56
2022-07-29T02:04:02.411Z,19.42
2022-07-29T02:05:02.444Z,19.49
2022-07-29T02:06:02.376Z,19.41
2022-07-29T02:07:02.374Z,19.47
2022-07-29T02:08:02.339Z,19.52
2022-07-29T02:09:02.322Z,19.52
2022-07-29T02:10:02.306Z,19.52
2022-07-29T02:11:02.314Z,19.57
2022-07-29T02:12:02.275Z,19.56
2022-07-29T02:13:02.255Z,19.63
2022-07-29T02:14:02.237Z,19.62
2022-07-29T02:15:02.223Z,19.60
2022-07-29T02:16:02.279Z,19.60
2022-07-29T02:17:02.191Z,19.57
2022-07-29T02:18:02.171Z,19.67
2022-07-29T02:19:02.157Z,19.63
2022-07-29T02:20:02.142Z,19.59
2022-07-29T02:21:02.114Z,19.64
2022-07-29T02:22:02.121Z,19.60
2022-07-29T02:23:02.090Z,19.57
2022-07-29T02:24:02.070Z,19.62
2022-07-29T02:25:02.081Z,19.60
2022-07-29T02:26:02.030Z,19.59
2022-07-29T02:27:02.017Z,19.53
2022-07-29T02:28:02.004Z,19.54
2022-07-29T02:29:01.982Z,19.53
2022-07-29T02:30:01.994Z,19.56
2022-07-29T02:31:02.021Z,19.54
2022-07-29T02:32:01.943Z,19.54
2022-07-29T02:33:01.915Z,19.45
2022-07-29T02:34:01.927Z,19.44
2022-07-29T02:35:01.899Z,19.45
2022-07-29T02:36:01.867Z,19.47
2022-07-29T02:37:01.846Z,19.57
2022-07-29T02:38:01.833Z,19.56
2022-07-29T02:39:01.862Z,19.52
2022-07-29T02:40:01.795Z,19.56
2022-07-29T02:41:01.772Z,19.50
2022-07-29T02:42:01.768Z,19.42
2022-07-29T02:43:01.766Z,19.47
2022-07-29T02:44:01.743Z,19.45
2022-07-29T02:45:01.731Z,19.45
2022-07-29T02:46:01.711Z,19.38
2022-07-29T02:47:01.733Z,19.42
2022-07-29T02:48:01.655Z,19.34
2022-07-29T02:49:01.772Z,19.42
2022-07-29T02:50:01.649Z,19.39
2022-07-29T02:51:01.614Z,19.49
2022-07-29T02:52:01.607Z,19.44
2022-07-29T02:53:01.595Z,19.41
2022-07-29T02:54:01.567Z,19.39
2022-07-29T02:55:01.535Z,19.32
2022-07-29T02:56:01.531Z,19.31
2022-07-29T02:57:01.503Z,19.34
2022-07-29T02:58:01.486Z,19.34
2022-07-29T02:59:01.497Z,19.34
2022-07-29T03:00:01.446Z,19.35
2022-07-29T03:01:01.437Z,19.31
2022-07-29T03:02:01.487Z,19.24
2022-07-29T03:03:01.398Z,19.32
2022-07-29T03:04:01.379Z,19.23
2022-07-29T03:05:01.405Z,19.22
2022-07-29T03:06:01.344Z,19.19
2022-07-29T03:07:01.354Z,19.20
2022-07-29T03:08:01.310Z,19.17
2022-07-29T03:09:01.296Z,19.16
2022-07-29T03:10:01.297Z,19.15
2022-07-29T03:11:01.266Z,19.09
2022-07-29T03:12:01.244Z,18.96
2022-07-29T03:13:01.230Z,19.01
2022-07-29T03:14:01.210Z,19.01
2022-07-29T03:15:01.210Z,19.00
2022-07-29T03:16:01.205Z,18.91
2022-07-29T03:17:01.162Z,18.89
2022-07-29T03:18:01.158Z,18.89
2022-07-29T03:19:01.118Z,18.82
2022-07-29T03:20:01.101Z,18.81
2022-07-29T03:21:01.087Z,18.83
2022-07-29T03:22:01.064Z,18.86
2022-07-29T03:23:01.050Z,18.88
2022-07-29T03:24:01.049Z,18.81
2022-07-29T03:25:01.018Z,18.79
2022-07-29T03:26:00.999Z,18.83
2022-07-29T03:27:00.981Z,18.81
2022-07-29T03:28:00.975Z,18.79
2022-07-29T03:29:00.944Z,18.85
2022-07-29T03:30:00.924Z,18.70
2022-07-29T03:31:01.015Z,18.49
2022-07-29T03:32:00.892Z,18.30
2022-07-29T03:33:01.014Z,18.11
2022-07-29T03:34:01.018Z,18.05
2022-07-29T03:35:00.841Z,17.91
2022-07-29T03:36:00.912Z,17.76
2022-07-29T03:37:00.822Z,17.72
2022-07-29T03:38:00.839Z,17.59
2022-07-29T03:39:00.808Z,17.65
2022-07-29T03:40:00.867Z,17.65
2022-07-29T03:41:00.743Z,17.46
2022-07-29T03:42:00.715Z,17.35
2022-07-29T03:43:00.721Z,17.38
2022-07-29T03:44:00.681Z,17.28
2022-07-29T03:45:00.667Z,17.19
2022-07-29T03:46:00.678Z,17.07
2022-07-29T03:47:00.629Z,17.06
2022-07-29T03:48:01.360Z,16.98
2022-07-29T03:49:00.663Z,16.95
2022-07-29T03:50:00.567Z,16.91
2022-07-29T03:51:00.547Z,16.88
2022-07-29T03:52:00.559Z,16.94
2022-07-29T03:53:00.511Z,16.73
2022-07-29T03:54:00.495Z,16.72
2022-07-29T03:55:00.470Z,16.76
2022-07-29T03:56:00.490Z,16.77
2022-07-29T03:57:00.476Z,16.79
2022-07-29T03:58:00.420Z,16.79
2022-07-29T03:59:00.397Z,16.76
2022-07-29T04:00:00.386Z,16.73
2022-07-29T04:01:00.385Z,16.74
2022-07-29T04:02:00.445Z,16.72
2022-07-29T04:03:00.414Z,16.76
2022-07-29T04:04:00.365Z,16.77
2022-07-29T04:05:00.294Z,16.72
2022-07-29T04:06:00.292Z,16.82
2022-07-29T04:07:00.271Z,16.76
2022-07-29T04:08:00.237Z,16.70
2022-07-29T04:09:00.219Z,16.64
2022-07-29T04:10:00.215Z,16.69
2022-07-29T04:11:00.201Z,16.72
2022-07-29T04:12:03.909Z,16.64
2022-07-29T04:13:00.143Z,16.67
2022-07-29T04:14:00.128Z,16.61
2022-07-29T04:15:00.136Z,16.61
2022-07-29T04:16:00.185Z,16.62
2022-07-29T04:17:00.082Z,16.72
2022-07-29T04:18:00.208Z,16.67
2022-07-29T04:19:00.086Z,16.64
2022-07-29T04:20:00.014Z,16.65
2022-07-29T04:21:00.017Z,16.64
2022-07-29T04:21:59.999Z,16.67
2022-07-29T04:22:59.978Z,16.64
2022-07-29T04:23:59.957Z,16.76
2022-07-29T04:25:03.706Z,16.64
2022-07-29T04:25:59.904Z,16.58
2022-07-29T04:26:59.884Z,16.67
2022-07-29T04:27:59.886Z,16.67
2022-07-29T04:28:59.845Z,16.69
2022-07-29T04:29:59.846Z,16.67
2022-07-29T04:30:59.855Z,16.61
2022-07-29T04:31:59.786Z,16.62
2022-07-29T04:32:59.773Z,16.58
2022-07-29T04:33:59.749Z,16.59
2022-07-29T04:34:59.761Z,16.54
2022-07-29T04:35:59.711Z,16.52
2022-07-29T04:36:59.699Z,16.52
2022-07-29T04:37:59.675Z,16.46
2022-07-29T04:38:59.676Z,16.40
2022-07-29T04:39:59.647Z,16.37
2022-07-29T04:40:59.619Z,16.44
2022-07-29T04:41:59.599Z,16.51
2022-07-29T04:42:59.613Z,16.46
2022-07-29T04:43:59.570Z,16.42
2022-07-29T04:44:59.544Z,16.43
2022-07-29T04:45:59.578Z,16.36
2022-07-29T04:46:59.512Z,16.25
2022-07-29T04:47:59.495Z,16.22
2022-07-29T04:48:59.531Z,16.22
2022-07-29T04:49:59.461Z,16.28
2022-07-29T04:50:59.454Z,16.42
2022-07-29T04:51:59.424Z,16.47
2022-07-29T04:52:59.402Z,16.54
2022-07-29T04:53:59.404Z,16.49
2022-07-29T04:54:59.411Z,16.55
2022-07-29T04:55:59.343Z,16.67
2022-07-29T04:56:59.324Z,16.61
2022-07-29T04:57:59.313Z,16.67
2022-07-29T04:58:59.302Z,16.67
2022-07-29T04:59:59.290Z,16.64
2022-07-29T05:00:59.267Z,16.69
2022-07-29T05:01:59.339Z,16.67
2022-07-29T05:02:59.363Z,16.61
2022-07-29T05:04:00.739Z,16.67
2022-07-29T05:04:59.178Z,16.70
2022-07-29T05:05:59.183Z,16.74
2022-07-29T05:06:59.137Z,16.79
2022-07-29T05:07:59.147Z,16.79
2022-07-29T05:08:59.099Z,16.80
2022-07-29T05:09:59.088Z,16.83
2022-07-29T05:10:59.061Z,16.77
2022-07-29T05:11:59.052Z,16.88
2022-07-29T05:12:59.052Z,16.87
2022-07-29T05:13:59.011Z,16.91
2022-07-29T05:14:58.986Z,16.79
2022-07-29T05:15:58.998Z,16.90
2022-07-29T05:17:20.547Z,16.82
2022-07-29T05:17:58.959Z,16.79
2022-07-29T05:18:58.917Z,16.83
2022-07-29T05:19:58.909Z,16.94
2022-07-29T05:20:58.884Z,16.92
2022-07-29T05:21:58.865Z,16.92
2022-07-29T05:22:58.874Z,16.95
2022-07-29T05:23:58.836Z,17.02
2022-07-29T05:24:58.816Z,16.92
2022-07-29T05:25:58.830Z,16.91
2022-07-29T05:26:58.826Z,16.94
2022-07-29T05:27:58.792Z,17.02
2022-07-29T05:28:58.748Z,16.95
2022-07-29T05:29:58.753Z,16.87
2022-07-29T05:30:58.752Z,16.84
2022-07-29T05:31:58.765Z,16.84
2022-07-29T05:32:58.743Z,16.87
2022-07-29T05:33:58.737Z,16.83
2022-07-29T05:34:58.711Z,16.94
2022-07-29T05:36:00.757Z,16.82
2022-07-29T05:36:58.657Z,16.88
2022-07-29T05:37:58.610Z,16.74
2022-07-29T05:38:58.628Z,16.80
2022-07-29T05:39:59.118Z,16.76
2022-07-29T05:40:58.629Z,16.72
2022-07-29T05:41:58.604Z,16.87
2022-07-29T05:42:58.524Z,16.88
2022-07-29T05:43:58.452Z,16.92
2022-07-29T05:44:58.504Z,16.97
2022-07-29T05:45:58.565Z,17.01
2022-07-29T05:46:58.528Z,16.97
2022-07-29T05:47:58.436Z,16.95
2022-07-29T05:48:58.561Z,17.01
2022-07-29T05:49:58.402Z,17.09
2022-07-29T05:50:58.410Z,17.10
2022-07-29T05:51:58.402Z,17.14
2022-07-29T05:52:58.395Z,17.13
2022-07-29T05:53:58.359Z,17.16
2022-07-29T05:54:58.353Z,17.17
2022-07-29T05:55:58.250Z,17.16
2022-07-29T05:56:58.275Z,17.16
2022-07-29T05:57:58.260Z,17.19
2022-07-29T05:58:58.232Z,17.27
2022-07-29T05:59:58.266Z,17.30
2022-07-29T06:00:58.280Z,17.28
2022-07-29T06:01:58.509Z,17.25
2022-07-29T06:02:58.223Z,17.27
2022-07-29T06:03:58.154Z,17.34
2022-07-29T06:04:58.289Z,17.32
2022-07-29T06:05:58.130Z,17.35
2022-07-29T06:06:58.092Z,17.38
2022-07-29T06:07:58.114Z,17.30
2022-07-29T06:08:58.062Z,17.39
2022-07-29T06:09:58.082Z,17.41
2022-07-29T06:10:58.018Z,17.35
2022-07-29T06:11:58.058Z,17.39
2022-07-29T06:12:58.001Z,17.41
2022-07-29T06:13:57.970Z,17.31
2022-07-29T06:14:57.994Z,17.35
2022-07-29T06:15:57.910Z,17.45
2022-07-29T06:16:57.893Z,17.39
2022-07-29T06:18:00.324Z,17.41
2022-07-29T06:18:57.879Z,17.43
2022-07-29T06:19:57.805Z,17.39
2022-07-29T06:20:57.845Z,17.30
2022-07-29T06:21:57.871Z,17.32
2022-07-29T06:22:57.766Z,17.27
2022-07-29T06:23:57.787Z,17.17
2022-07-29T06:24:57.756Z,17.20
2022-07-29T06:25:57.804Z,17.20
2022-07-29T06:26:57.728Z,17.16
2022-07-29T06:27:57.725Z,17.12
2022-07-29T06:28:57.740Z,17.13
2022-07-29T06:29:57.687Z,17.17
2022-07-29T06:30:57.753Z,17.14
2022-07-29T06:31:57.634Z,17.16
2022-07-29T06:32:57.613Z,17.12
2022-07-29T06:33:57.602Z,17.07
2022-07-29T06:35:24.371Z,17.24
2022-07-29T06:35:57.633Z,17.19
2022-07-29T06:36:57.492Z,17.16
2022-07-29T06:37:59.584Z,17.13
2022-07-29T06:38:57.494Z,17.02
2022-07-29T06:39:59.576Z,16.98
2022-07-29T06:40:57.504Z,16.97
2022-07-29T06:41:57.454Z,16.90
2022-07-29T06:42:57.426Z,16.97
2022-07-29T06:43:57.409Z,17.06
2022-07-29T06:44:57.385Z,17.09
2022-07-29T06:45:57.465Z,17.06
2022-07-29T06:46:57.394Z,17.06
2022-07-29T06:47:57.291Z,17.02
2022-07-29T06:48:57.447Z,17.09
2022-07-29T06:49:57.354Z,17.13
2022-07-29T06:50:57.299Z,17.12
2022-07-29T06:51:57.277Z,17.13
2022-07-29T06:52:57.300Z,17.01
2022-07-29T06:54:00.283Z,17.10
2022-07-29T06:54:57.166Z,17.09
2022-07-29T06:55:57.200Z,17.13
2022-07-29T06:56:57.235Z,17.13
2022-07-29T06:57:57.118Z,17.17
2022-07-29T06:58:57.132Z,17.27
2022-07-29T06:59:57.129Z,17.24
2022-07-29T07:00:57.166Z,17.27
2022-07-29T07:01:57.115Z,17.31
2022-07-29T07:02:57.085Z,17.30
2022-07-29T07:03:57.004Z,17.22
2022-07-29T07:04:56.989Z,17.17
2022-07-29T07:05:56.985Z,17.14
2022-07-29T07:06:57.005Z,17.19
2022-07-29T07:07:57.593Z,17.14
2022-07-29T07:08:56.938Z,17.04
2022-07-29T07:09:56.902Z,17.12
2022-07-29T07:10:56.929Z,17.17
2022-07-29T07:11:56.869Z,17.14
2022-07-29T07:12:56.846Z,17.19
2022-07-29T07:14:02.228Z,17.17
2022-07-29T07:14:56.800Z,17.19
2022-07-29T07:15:56.807Z,17.17
2022-07-29T07:16:56.805Z,17.24
2022-07-29T07:17:56.754Z,17.20
2022-07-29T07:18:56.735Z,17.17
2022-07-29T07:19:56.717Z,17.24
2022-07-29T07:20:56.721Z,17.30
2022-07-29T07:21:56.689Z,17.27
2022-07-29T07:22:56.661Z,17.20
2022-07-29T07:23:56.643Z,17.19
2022-07-29T07:24:56.626Z,17.19
2022-07-29T07:25:56.609Z,17.22
2022-07-29T07:26:56.620Z,17.22
2022-07-29T07:27:56.565Z,17.30
2022-07-29T07:28:56.552Z,17.38
2022-07-29T07:29:56.527Z,17.45
2022-07-29T07:30:56.524Z,17.49
2022-07-29T07:32:00.973Z,17.46
2022-07-29T07:32:56.503Z,17.52
2022-07-29T07:33:56.463Z,17.63
2022-07-29T07:34:56.443Z,17.63
2022-07-29T07:35:56.422Z,17.69
2022-07-29T07:36:56.423Z,17.66
2022-07-29T07:37:56.406Z,17.75
2022-07-29T07:38:56.378Z,17.78
2022-07-29T07:39:56.355Z,17.76
2022-07-29T07:40:56.357Z,17.79
2022-07-29T07:41:56.319Z,17.86
2022-07-29T07:42:56.322Z,17.91
2022-07-29T07:43:56.279Z,17.93
2022-07-29T07:45:12.572Z,17.94
2022-07-29T07:45:56.305Z,17.93
2022-07-29T07:46:56.227Z,18.03
2022-07-29T07:47:56.208Z,18.09
2022-07-29T07:48:56.276Z,18.11
2022-07-29T07:49:56.181Z,18.20
2022-07-29T07:50:56.154Z,18.20
2022-07-29T07:51:56.154Z,18.17
2022-07-29T07:52:56.141Z,18.17
2022-07-29T07:53:56.127Z,18.33
2022-07-29T07:54:56.104Z,18.28
2022-07-29T07:56:12.665Z,18.33
2022-07-29T07:56:56.049Z,18.38
2022-07-29T07:57:56.036Z,18.39
2022-07-29T07:58:56.035Z,18.41
2022-07-29T07:59:56.005Z,18.42
2022-07-29T08:00:56.071Z,18.45
2022-07-29T08:01:56.777Z,18.42
2022-07-29T08:02:56.011Z,18.49
2022-07-29T08:03:55.941Z,18.54
2022-07-29T08:04:55.910Z,18.51
2022-07-29T08:05:55.890Z,18.51
2022-07-29T08:06:55.890Z,18.42
2022-07-29T08:07:55.852Z,18.48
2022-07-29T08:08:56.435Z,18.49
2022-07-29T08:09:55.830Z,18.54
2022-07-29T08:10:55.807Z,18.43
2022-07-29T08:11:55.831Z,18.43
2022-07-29T08:12:55.768Z,18.42
2022-07-29T08:13:55.748Z,18.34
2022-07-29T08:14:55.733Z,18.38
2022-07-29T08:15:55.736Z,18.36
2022-07-29T08:16:55.765Z,18.31
2022-07-29T08:17:55.685Z,18.26
2022-07-29T08:18:55.658Z,18.20
2022-07-29T08:19:55.643Z,18.27
2022-07-29T08:20:55.624Z,18.31
2022-07-29T08:21:55.929Z,18.34
2022-07-29T08:22:55.597Z,18.24
2022-07-29T08:24:00.775Z,18.28
2022-07-29T08:24:55.620Z,18.33
2022-07-29T08:25:55.542Z,18.26
2022-07-29T08:26:55.515Z,18.33
2022-07-29T08:27:55.511Z,18.33
2022-07-29T08:28:55.511Z,18.28
2022-07-29T08:29:55.473Z,18.31
2022-07-29T08:30:55.445Z,18.33
2022-07-29T08:31:55.799Z,18.26
2022-07-29T08:32:56.125Z,18.38
2022-07-29T08:33:55.438Z,18.34
2022-07-29T08:34:55.383Z,18.36
2022-07-29T08:35:55.365Z,18.34
2022-07-29T08:36:55.349Z,18.30
2022-07-29T08:37:55.328Z,18.45
2022-07-29T08:38:55.303Z,18.48
2022-07-29T08:39:55.307Z,18.42
2022-07-29T08:40:55.272Z,18.48
2022-07-29T08:41:56.982Z,18.39
2022-07-29T08:42:55.240Z,18.34
2022-07-29T08:43:55.219Z,18.34
2022-07-29T08:44:55.216Z,18.31
2022-07-29T08:45:55.200Z,18.36
2022-07-29T08:46:55.173Z,18.34
2022-07-29T08:47:55.148Z,18.38
2022-07-29T08:48:55.187Z,18.36
2022-07-29T08:49:55.144Z,18.31
2022-07-29T08:50:55.108Z,18.38
2022-07-29T08:51:55.481Z,18.41
2022-07-29T08:52:59.626Z,18.41
2022-07-29T08:53:55.032Z,18.30
2022-07-29T08:54:55.029Z,18.31
2022-07-29T08:55:55.036Z,18.46
2022-07-29T08:56:54.998Z,18.54
2022-07-29T08:57:57.490Z,18.46
2022-07-29T08:58:54.969Z,18.48
2022-07-29T08:59:54.929Z,18.51
2022-07-29T09:00:55.521Z,18.54
2022-07-29T09:01:55.157Z,18.43
2022-07-29T09:02:54.885Z,18.49
2022-07-29T09:03:54.880Z,18.57
2022-07-29T09:04:54.856Z,18.46
2022-07-29T09:05:54.837Z,18.52
2022-07-29T09:06:54.827Z,18.56
2022-07-29T09:07:54.801Z,18.57
2022-07-29T09:08:54.784Z,18.71
2022-07-29T09:09:55.728Z,18.75
2022-07-29T09:10:54.741Z,18.85
2022-07-29T09:11:55.029Z,18.82
2022-07-29T09:12:54.708Z,18.82
2022-07-29T09:13:54.683Z,18.93
2022-07-29T09:14:54.673Z,19.05
2022-07-29T09:15:54.731Z,19.09
2022-07-29T09:16:54.724Z,19.19
2022-07-29T09:17:54.645Z,19.30
2022-07-29T09:18:54.601Z,19.35
2022-07-29T09:19:54.589Z,19.45
2022-07-29T09:20:54.563Z,19.53
2022-07-29T09:21:54.602Z,19.57
2022-07-29T09:22:54.537Z,19.67
2022-07-29T09:23:54.522Z,19.84
2022-07-29T09:24:54.494Z,19.87
2022-07-29T09:25:54.482Z,20.08
2022-07-29T09:26:54.773Z,20.18
2022-07-29T09:27:54.481Z,20.33
2022-07-29T09:28:54.435Z,20.42
2022-07-29T09:29:54.417Z,20.42
2022-07-29T09:30:54.394Z,20.52
2022-07-29T09:31:54.471Z,20.58
2022-07-29T09:32:54.381Z,20.61
2022-07-29T09:33:54.350Z,20.79
2022-07-29T09:34:58.380Z,20.90
2022-07-29T09:35:56.940Z,20.92
2022-07-29T09:36:54.531Z,21.32
2022-07-29T09:37:54.283Z,21.66
2022-07-29T09:38:54.260Z,21.77
2022-07-29T09:39:54.287Z,21.94
2022-07-29T09:40:54.256Z,22.30
2022-07-29T09:41:54.217Z,22.53
2022-07-29T09:42:54.218Z,22.73
2022-07-29T09:43:54.185Z,22.67
2022-07-29T09:44:54.171Z,22.71
2022-07-29T09:45:54.165Z,22.67
2022-07-29T09:46:54.447Z,22.76
2022-07-29T09:47:54.118Z,22.74
2022-07-29T09:48:54.142Z,22.83
2022-07-29T09:49:54.091Z,22.91
2022-07-29T09:50:54.091Z,22.96
2022-07-29T09:51:54.057Z,23.06
2022-07-29T09:52:54.042Z,23.26
2022-07-29T09:53:54.037Z,23.31
2022-07-29T09:54:54.003Z,23.34
2022-07-29T09:55:54.011Z,23.55
2022-07-29T09:56:54.275Z,23.42
2022-07-29T09:57:53.967Z,23.59
2022-07-29T09:58:53.970Z,23.78
2022-07-29T09:59:53.928Z,24.07
2022-07-29T10:00:54.007Z,24.44
2022-07-29T10:01:54.276Z,24.65
2022-07-29T10:02:53.922Z,25.03
2022-07-29T10:03:53.886Z,25.30
2022-07-29T10:04:53.882Z,25.45
2022-07-29T10:05:53.843Z,25.56
2022-07-29T10:06:53.838Z,25.82
2022-07-29T10:07:56.994Z,26.20
2022-07-29T10:08:53.810Z,26.27
2022-07-29T10:09:53.806Z,26.60
2022-07-29T10:10:53.796Z,26.68
2022-07-29T10:11:53.786Z,26.67
2022-07-29T10:12:53.777Z,26.70
2022-07-29T10:13:53.754Z,26.52
2022-07-29T10:14:53.730Z,26.24
2022-07-29T10:15:53.780Z,25.81
2022-07-29T10:16:53.737Z,24.96
2022-07-29T10:17:53.705Z,24.86
2022-07-29T10:18:53.689Z,24.76
2022-07-29T10:19:53.686Z,24.62
2022-07-29T10:20:53.674Z,24.52
2022-07-29T10:21:57.920Z,24.43
2022-07-29T10:22:54.233Z,24.26
2022-07-29T10:23:53.628Z,24.37
2022-07-29T10:24:53.619Z,24.34
2022-07-29T10:25:53.611Z,24.34
2022-07-29T10:26:53.599Z,24.31
2022-07-29T10:27:53.584Z,24.47
2022-07-29T10:28:53.583Z,24.93
2022-07-29T10:29:53.560Z,25.40
2022-07-29T10:30:53.544Z,25.75
2022-07-29T10:31:53.707Z,26.21
2022-07-29T10:32:54.339Z,26.39
2022-07-29T10:33:53.544Z,26.57
2022-07-29T10:34:53.500Z,26.88
2022-07-29T10:35:53.485Z,27.16
2022-07-29T10:36:53.475Z,27.13
2022-07-29T10:37:53.461Z,26.86
2022-07-29T10:38:53.505Z,26.64
2022-07-29T10:39:53.445Z,26.27
2022-07-29T10:40:53.429Z,25.93
2022-07-29T10:41:53.615Z,25.49
2022-07-29T10:42:53.401Z,25.34
2022-07-29T10:43:53.414Z,25.27
2022-07-29T10:44:53.394Z,25.03
2022-07-29T10:45:53.367Z,25.06
2022-07-29T10:46:53.516Z,24.82
2022-07-29T10:47:53.341Z,24.74
2022-07-29T10:48:53.376Z,24.58
2022-07-29T10:49:53.339Z,24.48
2022-07-29T10:50:53.305Z,24.34
2022-07-29T10:51:53.635Z,24.36
2022-07-29T10:52:53.281Z,24.37
2022-07-29T10:53:53.367Z,23.96
2022-07-29T10:54:53.273Z,23.98
2022-07-29T10:55:53.655Z,23.88
2022-07-29T10:56:53.231Z,23.91
2022-07-29T10:57:54.871Z,23.84
2022-07-29T10:58:53.199Z,23.89
2022-07-29T10:59:53.247Z,23.85
2022-07-29T11:00:53.215Z,23.88
2022-07-29T11:01:53.509Z,24.00
2022-07-29T11:02:53.237Z,23.88
2022-07-29T11:03:53.786Z,23.94
2022-07-29T11:04:53.129Z,24.07
2022-07-29T11:05:53.126Z,23.96
2022-07-29T11:06:53.095Z,23.88
2022-07-29T11:07:53.103Z,23.88
2022-07-29T11:08:53.065Z,23.94
2022-07-29T11:09:53.063Z,23.91
2022-07-29T11:10:53.078Z,23.76
2022-07-29T11:11:53.037Z,23.52
2022-07-29T11:12:53.024Z,23.26
2022-07-29T11:13:53.147Z,23.18
2022-07-29T11:14:53.011Z,23.08
2022-07-29T11:15:52.969Z,23.11
2022-07-29T11:16:52.965Z,23.25
2022-07-29T11:17:53.135Z,23.26
2022-07-29T11:18:52.972Z,23.23
2022-07-29T11:19:52.940Z,23.14
2022-07-29T11:20:52.894Z,23.36
2022-07-29T11:21:55.329Z,23.29
2022-07-29T11:22:52.883Z,23.44
2022-07-29T11:23:52.883Z,23.49
2022-07-29T11:24:52.839Z,23.54
2022-07-29T11:25:52.863Z,23.64
2022-07-29T11:26:55.437Z,23.76
2022-07-29T11:27:52.804Z,24.03
2022-07-29T11:28:52.817Z,23.94
2022-07-29T11:29:53.355Z,24.00
2022-07-29T11:30:52.765Z,24.40
2022-07-29T11:31:52.782Z,24.58
2022-07-29T11:32:52.754Z,24.71
2022-07-29T11:33:56.503Z,24.66
2022-07-29T11:34:52.700Z,24.55
2022-07-29T11:36:00.799Z,24.53
2022-07-29T11:36:52.695Z,24.53
2022-07-29T11:37:57.784Z,24.53
2022-07-29T11:38:52.664Z,24.37
2022-07-29T11:39:52.655Z,24.31
2022-07-29T11:40:52.620Z,24.26
2022-07-29T11:41:52.605Z,24.08
2022-07-29T11:42:52.728Z,23.96
2022-07-29T11:43:52.592Z,23.89
2022-07-29T11:44:52.574Z,23.89
2022-07-29T11:45:52.557Z,23.76
2022-07-29T11:46:53.913Z,23.82
2022-07-29T11:47:52.636Z,23.89
2022-07-29T11:48:52.557Z,23.84
2022-07-29T11:49:52.499Z,23.91
2022-07-29T11:50:52.500Z,23.98
2022-07-29T11:51:52.491Z,23.98
2022-07-29T11:52:52.455Z,24.18
2022-07-29T11:53:52.782Z,24.25
2022-07-29T11:54:58.072Z,24.43
2022-07-29T11:55:52.416Z,24.53
2022-07-29T11:56:52.407Z,24.52
2022-07-29T11:58:04.427Z,24.60
2022-07-29T11:58:52.430Z,24.76
2022-07-29T11:59:52.362Z,24.70
2022-07-29T12:00:52.363Z,24.74
2022-07-29T12:01:52.337Z,24.89
2022-07-29T12:02:52.320Z,25.09
2022-07-29T12:03:52.368Z,25.23
2022-07-29T12:04:52.326Z,25.51
2022-07-29T12:05:52.298Z,25.49
2022-07-29T12:06:52.284Z,25.63
2022-07-29T12:07:52.278Z,25.71
2022-07-29T12:08:52.255Z,25.82
2022-07-29T12:09:52.231Z,25.95
2022-07-29T12:10:52.236Z,26.26
2022-07-29T12:11:52.208Z,26.56
2022-07-29T12:12:52.211Z,26.68
2022-07-29T12:13:52.208Z,26.80
2022-07-29T12:14:52.201Z,26.94
2022-07-29T12:15:52.185Z,26.93
2022-07-29T12:16:52.243Z,26.88
2022-07-29T12:17:52.149Z,26.93
2022-07-29T12:18:52.147Z,27.26
2022-07-29T12:19:52.118Z,27.35
2022-07-29T12:20:52.099Z,27.37
2022-07-29T12:21:59.342Z,27.49
2022-07-29T12:22:52.079Z,27.44
2022-07-29T12:23:52.073Z,27.47
2022-07-29T12:24:52.051Z,27.34
2022-07-29T12:25:52.062Z,27.25
2022-07-29T12:26:52.022Z,27.35
2022-07-29T12:27:52.009Z,27.70
2022-07-29T12:28:52.023Z,27.87
2022-07-29T12:29:51.998Z,27.98
2022-07-29T12:30:51.982Z,28.30
2022-07-29T12:31:52.091Z,28.46
2022-07-29T12:32:52.073Z,28.52
2022-07-29T12:33:51.944Z,28.64
2022-07-29T12:34:51.935Z,28.32
2022-07-29T12:36:06.310Z,28.03
2022-07-29T12:36:51.935Z,27.69
2022-07-29T12:37:51.905Z,27.49
2022-07-29T12:38:51.910Z,27.40
2022-07-29T12:39:51.890Z,27.64
2022-07-29T12:40:52.690Z,27.61
2022-07-29T12:41:51.899Z,27.30
2022-07-29T12:42:51.896Z,27.63
2022-07-29T12:43:51.853Z,27.85
2022-07-29T12:44:51.844Z,28.13
2022-07-29T12:45:51.826Z,28.09
2022-07-29T12:46:51.861Z,28.28
2022-07-29T12:47:51.812Z,28.62
2022-07-29T12:48:51.893Z,28.87
2022-07-29T12:49:51.817Z,28.93
2022-07-29T12:50:51.777Z,29.00
2022-07-29T12:51:51.777Z,29.07